sensor_id;sensor_type;location;lat;lon;timestamp;temperature;humidity
3876;DHT22;1953;51.222;6.624;2023-11-19T00:02:57;13.20;1.00
3876;DHT22;1953;51.222;6.624;2023-11-19T00:07:40;13.30;1.00
3876;DHT22;1953;51.222;6.624;2023-11-19T00:12:23;13.30;1.00
3876;DHT22;1953;51.222;6.624;2023-11-19T00:19:57;13.50;1.00
3876;DHT22;1953;51.222;6.624;2023-11-19T00:24:40;13.50;1.00
3876;DHT22;1953;51.222;6.624;2023-11-19T00:29:23;13.60;1.00
3876;DHT22;1953;51.222;6.624;2023-11-19T00:34:06;13.70;1.00
3876;DHT22;1953;51.222;6.624;2023-11-19T00:38:49;13.80;1.00
3876;DHT22;1953;51.222;6.624;2023-11-19T00:43:33;13.80;1.00
3876;DHT22;1953;51.222;6.624;2023-11-19T00:48:16;13.90;1.00
3876;DHT22;1953;51.222;6.624;2023-11-19T00:52:59;14.00;1.00
3876;DHT22;1953;51.222;6.624;2023-11-19T00:57:43;14.00;1.00
3876;DHT22;1953;51.222;6.624;2023-11-19T01:02:25;14.00;1.00
3876;DHT22;1953;51.222;6.624;2023-11-19T01:07:08;14.00;1.00
3876;DHT22;1953;51.222;6.624;2023-11-19T01:11:53;14.00;1.00
3876;DHT22;1953;51.222;6.624;2023-11-19T01:16:37;14.10;1.00
3876;DHT22;1953;51.222;6.624;2023-11-19T01:21:20;14.10;1.00
3876;DHT22;1953;51.222;6.624;2023-11-19T01:26:03;14.10;1.00
3876;DHT22;1953;51.222;6.624;2023-11-19T01:30:46;14.10;1.00
3876;DHT22;1953;51.222;6.624;2023-11-19T01:35:30;14.20;1.00
3876;DHT22;1953;51.222;6.624;2023-11-19T01:40:13;14.20;1.00
3876;DHT22;1953;51.222;6.624;2023-11-19T01:44:58;14.20;1.00
3876;DHT22;1953;51.222;6.624;2023-11-19T01:49:42;14.20;1.00
3876;DHT22;1953;51.222;6.624;2023-11-19T01:54:26;14.20;1.00
3876;DHT22;1953;51.222;6.624;2023-11-19T01:59:11;14.30;1.00
3876;DHT22;1953;51.222;6.624;2023-11-19T02:03:55;14.20;1.00
3876;DHT22;1953;51.222;6.624;2023-11-19T02:08:39;14.30;1.00
3876;DHT22;1953;51.222;6.624;2023-11-19T02:13:23;15.00;1.00
3876;DHT22;1953;51.222;6.624;2023-11-19T02:18:22;14.20;1.00
3876;DHT22;1953;51.222;6.624;2023-11-19T02:23:08;14.20;1.00
3876;DHT22;1953;51.222;6.624;2023-11-19T02:27:53;14.20;1.00
3876;DHT22;1953;51.222;6.624;2023-11-19T02:32:37;14.30;1.00
3876;DHT22;1953;51.222;6.624;2023-11-19T02:37:21;14.30;1.00
3876;DHT22;1953;51.222;6.624;2023-11-19T02:42:04;14.30;1.00
3876;DHT22;1953;51.222;6.624;2023-11-19T02:46:49;14.30;1.00
3876;DHT22;1953;51.222;6.624;2023-11-19T02:51:31;14.30;1.00
3876;DHT22;1953;51.222;6.624;2023-11-19T02:56:15;14.30;1.00
3876;DHT22;1953;51.222;6.624;2023-11-19T03:01:01;14.30;1.00
3876;DHT22;1953;51.222;6.624;2023-11-19T03:05:55;14.30;1.00
3876;DHT22;1953;51.222;6.624;2023-11-19T03:10:37;14.30;1.00
3876;DHT22;1953;51.222;6.624;2023-11-19T03:15:20;14.40;1.00
3876;DHT22;1953;51.222;6.624;2023-11-19T03:20:05;14.40;1.00
3876;DHT22;1953;51.222;6.624;2023-11-19T03:24:52;14.40;1.00
3876;DHT22;1953;51.222;6.624;2023-11-19T03:29:34;14.40;1.00
3876;DHT22;1953;51.222;6.624;2023-11-19T03:34:17;14.40;1.00
3876;DHT22;1953;51.222;6.624;2023-11-19T03:39:00;14.40;1.00
3876;DHT22;1953;51.222;6.624;2023-11-19T03:43:45;14.50;1.00
3876;DHT22;1953;51.222;6.624;2023-11-19T03:48:28;14.50;1.00
3876;DHT22;1953;51.222;6.624;2023-11-19T03:53:12;14.50;1.00
3876;DHT22;1953;51.222;6.624;2023-11-19T03:57:54;14.50;1.00
3876;DHT22;1953;51.222;6.624;2023-11-19T04:02:38;14.50;1.00
3876;DHT22;1953;51.222;6.624;2023-11-19T04:07:21;14.50;1.00
3876;DHT22;1953;51.222;6.624;2023-11-19T04:12:04;14.50;1.00
3876;DHT22;1953;51.222;6.624;2023-11-19T04:16:48;14.40;1.00
3876;DHT22;1953;51.222;6.624;2023-11-19T04:21:31;14.40;1.00
3876;DHT22;1953;51.222;6.624;2023-11-19T04:26:14;14.30;1.00
3876;DHT22;1953;51.222;6.624;2023-11-19T04:30:57;14.30;1.00
3876;DHT22;1953;51.222;6.624;2023-11-19T04:35:39;14.20;1.00
3876;DHT22;1953;51.222;6.624;2023-11-19T04:40:23;14.20;1.00
3876;DHT22;1953;51.222;6.624;2023-11-19T04:45:07;14.10;1.00
3876;DHT22;1953;51.222;6.624;2023-11-19T04:49:51;14.00;1.00
3876;DHT22;1953;51.222;6.624;2023-11-19T04:54:34;14.10;1.00
3876;DHT22;1953;51.222;6.624;2023-11-19T04:59:18;14.00;1.00
3876;DHT22;1953;51.222;6.624;2023-11-19T05:04:00;14.00;1.00
3876;DHT22;1953;51.222;6.624;2023-11-19T05:08:44;14.10;1.00
3876;DHT22;1953;51.222;6.624;2023-11-19T05:13:27;14.00;1.00
3876;DHT22;1953;51.222;6.624;2023-11-19T05:18:11;14.00;1.00
3876;DHT22;1953;51.222;6.624;2023-11-19T05:22:54;14.00;1.00
3876;DHT22;1953;51.222;6.624;2023-11-19T05:27:36;14.10;1.00
3876;DHT22;1953;51.222;6.624;2023-11-19T05:32:19;14.00;1.00
3876;DHT22;1953;51.222;6.624;2023-11-19T05:37:03;14.00;1.00
3876;DHT22;1953;51.222;6.624;2023-11-19T05:41:47;13.90;1.00
3876;DHT22;1953;51.222;6.624;2023-11-19T05:46:29;14.00;1.00
3876;DHT22;1953;51.222;6.624;2023-11-19T05:51:12;14.00;1.00
3876;DHT22;1953;51.222;6.624;2023-11-19T05:55:56;14.00;1.00
3876;DHT22;1953;51.222;6.624;2023-11-19T06:00:42;14.00;1.00
3876;DHT22;1953;51.222;6.624;2023-11-19T06:05:24;13.90;1.00
3876;DHT22;1953;51.222;6.624;2023-11-19T06:10:08;13.90;1.00
3876;DHT22;1953;51.222;6.624;2023-11-19T06:14:52;13.90;1.00
3876;DHT22;1953;51.222;6.624;2023-11-19T06:19:35;13.80;1.00
3876;DHT22;1953;51.222;6.624;2023-11-19T06:24:17;13.90;1.00
3876;DHT22;1953;51.222;6.624;2023-11-19T06:29:00;13.80;1.00
3876;DHT22;1953;51.222;6.624;2023-11-19T06:33:44;13.70;1.00
3876;DHT22;1953;51.222;6.624;2023-11-19T06:38:26;13.70;1.00
3876;DHT22;1953;51.222;6.624;2023-11-19T06:43:09;13.70;1.00
3876;DHT22;1953;51.222;6.624;2023-11-19T06:47:51;13.60;1.00
3876;DHT22;1953;51.222;6.624;2023-11-19T06:52:35;13.60;1.00
3876;DHT22;1953;51.222;6.624;2023-11-19T06:57:19;13.50;1.00
3876;DHT22;1953;51.222;6.624;2023-11-19T07:02:03;13.50;1.00
3876;DHT22;1953;51.222;6.624;2023-11-19T07:06:45;13.50;1.00
3876;DHT22;1953;51.222;6.624;2023-11-19T07:11:30;13.40;1.00
3876;DHT22;1953;51.222;6.624;2023-11-19T07:16:14;13.40;1.00
3876;DHT22;1953;51.222;6.624;2023-11-19T07:20:56;13.30;1.00
3876;DHT22;1953;51.222;6.624;2023-11-19T07:25:40;13.30;1.00
3876;DHT22;1953;51.222;6.624;2023-11-19T07:30:24;13.30;1.00
3876;DHT22;1953;51.222;6.624;2023-11-19T07:35:07;13.30;1.00
3876;DHT22;1953;51.222;6.624;2023-11-19T07:39:50;13.30;1.00
3876;DHT22;1953;51.222;6.624;2023-11-19T07:44:33;13.30;1.00
3876;DHT22;1953;51.222;6.624;2023-11-19T07:49:16;13.20;1.00
3876;DHT22;1953;51.222;6.624;2023-11-19T07:53:59;13.30;1.00
3876;DHT22;1953;51.222;6.624;2023-11-19T07:58:41;13.30;1.00
3876;DHT22;1953;51.222;6.624;2023-11-19T08:03:24;13.30;1.00
3876;DHT22;1953;51.222;6.624;2023-11-19T08:08:08;13.30;1.00
3876;DHT22;1953;51.222;6.624;2023-11-19T08:12:50;13.30;1.00
3876;DHT22;1953;51.222;6.624;2023-11-19T08:17:33;13.40;1.00
3876;DHT22;1953;51.222;6.624;2023-11-19T08:22:16;13.50;1.00
3876;DHT22;1953;51.222;6.624;2023-11-19T08:27:00;13.50;1.00
3876;DHT22;1953;51.222;6.624;2023-11-19T08:31:42;13.70;1.00
3876;DHT22;1953;51.222;6.624;2023-11-19T08:36:25;13.60;1.00
3876;DHT22;1953;51.222;6.624;2023-11-19T08:41:09;13.80;1.00
3876;DHT22;1953;51.222;6.624;2023-11-19T08:45:53;13.70;1.00
3876;DHT22;1953;51.222;6.624;2023-11-19T08:50:35;13.80;1.00
3876;DHT22;1953;51.222;6.624;2023-11-19T08:55:18;13.90;1.00
3876;DHT22;1953;51.222;6.624;2023-11-19T09:00:00;13.90;1.00
3876;DHT22;1953;51.222;6.624;2023-11-19T09:04:45;14.00;1.00
3876;DHT22;1953;51.222;6.624;2023-11-19T09:09:28;14.00;1.00
3876;DHT22;1953;51.222;6.624;2023-11-19T09:14:10;14.00;1.00
3876;DHT22;1953;51.222;6.624;2023-11-19T09:18:53;14.10;1.00
3876;DHT22;1953;51.222;6.624;2023-11-19T09:23:36;14.10;1.00
3876;DHT22;1953;51.222;6.624;2023-11-19T09:28:20;14.20;1.00
3876;DHT22;1953;51.222;6.624;2023-11-19T09:33:02;14.30;1.00
3876;DHT22;1953;51.222;6.624;2023-11-19T09:37:45;14.30;1.00
3876;DHT22;1953;51.222;6.624;2023-11-19T09:42:30;14.30;1.00
3876;DHT22;1953;51.222;6.624;2023-11-19T09:47:19;14.40;1.00
3876;DHT22;1953;51.222;6.624;2023-11-19T09:52:02;14.40;1.00
3876;DHT22;1953;51.222;6.624;2023-11-19T09:56:46;14.50;1.00
3876;DHT22;1953;51.222;6.624;2023-11-19T10:01:30;14.60;1.00
3876;DHT22;1953;51.222;6.624;2023-11-19T10:06:14;14.70;1.00
3876;DHT22;1953;51.222;6.624;2023-11-19T10:10:57;14.70;1.00
3876;DHT22;1953;51.222;6.624;2023-11-19T10:15:40;14.70;1.00
3876;DHT22;1953;51.222;6.624;2023-11-19T10:20:24;14.80;1.00
3876;DHT22;1953;51.222;6.624;2023-11-19T10:25:21;14.70;1.00
3876;DHT22;1953;51.222;6.624;2023-11-19T10:30:05;14.70;1.00
3876;DHT22;1953;51.222;6.624;2023-11-19T10:34:48;14.90;1.00
3876;DHT22;1953;51.222;6.624;2023-11-19T10:39:52;15.00;1.00
3876;DHT22;1953;51.222;6.624;2023-11-19T10:44:35;14.90;1.00
3876;DHT22;1953;51.222;6.624;2023-11-19T10:49:19;15.10;1.00
3876;DHT22;1953;51.222;6.624;2023-11-19T10:54:03;15.20;1.00
3876;DHT22;1953;51.222;6.624;2023-11-19T10:58:51;15.20;1.00
3876;DHT22;1953;51.222;6.624;2023-11-19T11:03:38;15.20;1.00
3876;DHT22;1953;51.222;6.624;2023-11-19T11:08:21;15.10;1.00
3876;DHT22;1953;51.222;6.624;2023-11-19T11:13:05;15.10;1.00
3876;DHT22;1953;51.222;6.624;2023-11-19T11:17:50;15.20;1.00
3876;DHT22;1953;51.222;6.624;2023-11-19T11:22:53;15.30;1.00
3876;DHT22;1953;51.222;6.624;2023-11-19T11:28:03;15.40;1.00
3876;DHT22;1953;51.222;6.624;2023-11-19T11:32:58;15.50;1.00
3876;DHT22;1953;51.222;6.624;2023-11-19T11:37:46;15.40;1.00
3876;DHT22;1953;51.222;6.624;2023-11-19T11:42:36;15.20;1.00
3876;DHT22;1953;51.222;6.624;2023-11-19T11:47:18;15.10;1.00
3876;DHT22;1953;51.222;6.624;2023-11-19T11:52:03;15.20;1.00
3876;DHT22;1953;51.222;6.624;2023-11-19T11:57:01;15.20;1.00
3876;DHT22;1953;51.222;6.624;2023-11-19T12:01:57;15.40;1.00
3876;DHT22;1953;51.222;6.624;2023-11-19T12:06:40;15.50;1.00
3876;DHT22;1953;51.222;6.624;2023-11-19T12:11:24;15.60;1.00
3876;DHT22;1953;51.222;6.624;2023-11-19T12:20:59;15.70;1.00
3876;DHT22;1953;51.222;6.624;2023-11-19T12:25:41;15.60;1.00
3876;DHT22;1953;51.222;6.624;2023-11-19T12:30:26;15.40;1.00
3876;DHT22;1953;51.222;6.624;2023-11-19T12:35:11;15.50;1.00
3876;DHT22;1953;51.222;6.624;2023-11-19T12:39:55;15.20;1.00
3876;DHT22;1953;51.222;6.624;2023-11-19T12:44:38;15.00;1.00
3876;DHT22;1953;51.222;6.624;2023-11-19T12:49:21;14.90;1.00
3876;DHT22;1953;51.222;6.624;2023-11-19T12:54:03;15.00;1.00
3876;DHT22;1953;51.222;6.624;2023-11-19T12:58:47;15.10;1.00
3876;DHT22;1953;51.222;6.624;2023-11-19T13:03:30;15.20;1.00
3876;DHT22;1953;51.222;6.624;2023-11-19T13:08:13;15.20;1.00
3876;DHT22;1953;51.222;6.624;2023-11-19T13:13:03;15.40;1.00
3876;DHT22;1953;51.222;6.624;2023-11-19T13:17:48;15.60;1.00
3876;DHT22;1953;51.222;6.624;2023-11-19T13:22:31;15.70;1.00
3876;DHT22;1953;51.222;6.624;2023-11-19T13:27:13;15.60;1.00
3876;DHT22;1953;51.222;6.624;2023-11-19T13:31:56;15.80;1.00
3876;DHT22;1953;51.222;6.624;2023-11-19T13:36:40;15.70;1.00
3876;DHT22;1953;51.222;6.624;2023-11-19T13:41:23;15.50;1.00
3876;DHT22;1953;51.222;6.624;2023-11-19T13:46:06;15.30;1.00
3876;DHT22;1953;51.222;6.624;2023-11-19T13:50:51;15.20;1.00
3876;DHT22;1953;51.222;6.624;2023-11-19T13:55:34;15.00;1.00
3876;DHT22;1953;51.222;6.624;2023-11-19T14:00:17;15.00;1.00
3876;DHT22;1953;51.222;6.624;2023-11-19T14:05:00;14.90;1.00
3876;DHT22;1953;51.222;6.624;2023-11-19T14:09:43;14.80;1.00
3876;DHT22;1953;51.222;6.624;2023-11-19T14:14:28;14.80;1.00
3876;DHT22;1953;51.222;6.624;2023-11-19T14:19:11;14.70;1.00
3876;DHT22;1953;51.222;6.624;2023-11-19T14:23:55;14.60;1.00
3876;DHT22;1953;51.222;6.624;2023-11-19T14:28:37;14.50;1.00
3876;DHT22;1953;51.222;6.624;2023-11-19T14:33:22;14.30;1.00
3876;DHT22;1953;51.222;6.624;2023-11-19T14:38:05;14.10;1.00
3876;DHT22;1953;51.222;6.624;2023-11-19T14:42:50;13.90;1.00
3876;DHT22;1953;51.222;6.624;2023-11-19T14:47:34;13.80;1.00
3876;DHT22;1953;51.222;6.624;2023-11-19T14:52:17;13.70;1.00
3876;DHT22;1953;51.222;6.624;2023-11-19T14:57:00;13.70;1.00
3876;DHT22;1953;51.222;6.624;2023-11-19T15:01:45;14.20;1.00
3876;DHT22;1953;51.222;6.624;2023-11-19T15:06:27;13.60;1.00
3876;DHT22;1953;51.222;6.624;2023-11-19T15:11:13;13.60;1.00
3876;DHT22;1953;51.222;6.624;2023-11-19T15:15:56;13.50;1.00
3876;DHT22;1953;51.222;6.624;2023-11-19T15:20:38;13.40;1.00
3876;DHT22;1953;51.222;6.624;2023-11-19T15:25:21;13.40;1.00
3876;DHT22;1953;51.222;6.624;2023-11-19T15:30:06;13.30;1.00
3876;DHT22;1953;51.222;6.624;2023-11-19T15:34:50;13.30;1.00
3876;DHT22;1953;51.222;6.624;2023-11-19T15:39:33;13.30;1.00
3876;DHT22;1953;51.222;6.624;2023-11-19T15:44:17;13.20;1.00
3876;DHT22;1953;51.222;6.624;2023-11-19T15:49:01;13.20;1.00
3876;DHT22;1953;51.222;6.624;2023-11-19T15:53:43;13.20;1.00
3876;DHT22;1953;51.222;6.624;2023-11-19T15:58:27;13.20;1.00
3876;DHT22;1953;51.222;6.624;2023-11-19T16:03:09;13.30;1.00
3876;DHT22;1953;51.222;6.624;2023-11-19T16:07:54;13.30;1.00
3876;DHT22;1953;51.222;6.624;2023-11-19T16:12:37;13.30;1.00
3876;DHT22;1953;51.222;6.624;2023-11-19T16:17:19;13.20;1.00
3876;DHT22;1953;51.222;6.624;2023-11-19T16:22:02;13.20;1.00
3876;DHT22;1953;51.222;6.624;2023-11-19T16:26:52;13.10;1.00
3876;DHT22;1953;51.222;6.624;2023-11-19T16:31:34;13.10;1.00
3876;DHT22;1953;51.222;6.624;2023-11-19T16:36:17;13.10;1.00
3876;DHT22;1953;51.222;6.624;2023-11-19T16:40:59;13.10;1.00
3876;DHT22;1953;51.222;6.624;2023-11-19T16:45:43;13.10;1.00
3876;DHT22;1953;51.222;6.624;2023-11-19T16:50:26;13.10;1.00
3876;DHT22;1953;51.222;6.624;2023-11-19T16:55:09;13.10;1.00
3876;DHT22;1953;51.222;6.624;2023-11-19T16:59:53;13.20;1.00
3876;DHT22;1953;51.222;6.624;2023-11-19T17:04:39;13.10;1.00
3876;DHT22;1953;51.222;6.624;2023-11-19T17:09:22;13.10;1.00
3876;DHT22;1953;51.222;6.624;2023-11-19T17:14:04;13.00;1.00
3876;DHT22;1953;51.222;6.624;2023-11-19T17:18:48;13.10;1.00
3876;DHT22;1953;51.222;6.624;2023-11-19T17:23:31;13.10;1.00
3876;DHT22;1953;51.222;6.624;2023-11-19T17:28:14;13.00;1.00
3876;DHT22;1953;51.222;6.624;2023-11-19T17:32:57;12.90;1.00
3876;DHT22;1953;51.222;6.624;2023-11-19T17:37:39;12.90;1.00
3876;DHT22;1953;51.222;6.624;2023-11-19T17:42:24;12.90;1.00
3876;DHT22;1953;51.222;6.624;2023-11-19T17:47:06;13.00;1.00
3876;DHT22;1953;51.222;6.624;2023-11-19T17:51:49;13.00;1.00
3876;DHT22;1953;51.222;6.624;2023-11-19T17:56:31;13.10;1.00
3876;DHT22;1953;51.222;6.624;2023-11-19T18:01:17;13.20;1.00
3876;DHT22;1953;51.222;6.624;2023-11-19T18:05:59;13.20;1.00
3876;DHT22;1953;51.222;6.624;2023-11-19T18:10:42;13.20;1.00
3876;DHT22;1953;51.222;6.624;2023-11-19T18:15:24;13.30;1.00
3876;DHT22;1953;51.222;6.624;2023-11-19T18:20:09;13.30;1.00
3876;DHT22;1953;51.222;6.624;2023-11-19T18:24:54;13.30;1.00
3876;DHT22;1953;51.222;6.624;2023-11-19T18:29:37;13.00;1.00
3876;DHT22;1953;51.222;6.624;2023-11-19T18:34:21;12.80;1.00
3876;DHT22;1953;51.222;6.624;2023-11-19T18:39:05;12.80;1.00
3876;DHT22;1953;51.222;6.624;2023-11-19T18:43:50;12.70;1.00
3876;DHT22;1953;51.222;6.624;2023-11-19T18:48:33;12.70;1.00
3876;DHT22;1953;51.222;6.624;2023-11-19T18:53:17;12.60;1.00
3876;DHT22;1953;51.222;6.624;2023-11-19T18:58:00;12.60;1.00
3876;DHT22;1953;51.222;6.624;2023-11-19T19:02:44;12.50;1.00
3876;DHT22;1953;51.222;6.624;2023-11-19T19:07:29;12.50;1.00
3876;DHT22;1953;51.222;6.624;2023-11-19T19:12:12;12.40;1.00
3876;DHT22;1953;51.222;6.624;2023-11-19T19:16:55;12.40;1.00
3876;DHT22;1953;51.222;6.624;2023-11-19T19:21:38;12.40;1.00
3876;DHT22;1953;51.222;6.624;2023-11-19T19:26:21;12.40;1.00
3876;DHT22;1953;51.222;6.624;2023-11-19T19:31:04;12.30;1.00
3876;DHT22;1953;51.222;6.624;2023-11-19T19:35:47;12.30;1.00
3876;DHT22;1953;51.222;6.624;2023-11-19T19:40:30;12.40;1.00
3876;DHT22;1953;51.222;6.624;2023-11-19T19:45:12;12.30;1.00
3876;DHT22;1953;51.222;6.624;2023-11-19T19:49:55;12.30;1.00
3876;DHT22;1953;51.222;6.624;2023-11-19T19:54:40;12.30;1.00
3876;DHT22;1953;51.222;6.624;2023-11-19T19:59:23;12.30;1.00
3876;DHT22;1953;51.222;6.624;2023-11-19T20:04:05;12.20;1.00
3876;DHT22;1953;51.222;6.624;2023-11-19T20:08:48;12.30;1.00
3876;DHT22;1953;51.222;6.624;2023-11-19T20:13:32;12.30;1.00
3876;DHT22;1953;51.222;6.624;2023-11-19T20:18:15;12.20;1.00
3876;DHT22;1953;51.222;6.624;2023-11-19T20:22:58;12.20;1.00
3876;DHT22;1953;51.222;6.624;2023-11-19T20:27:40;12.20;1.00
3876;DHT22;1953;51.222;6.624;2023-11-19T20:32:24;12.30;1.00
3876;DHT22;1953;51.222;6.624;2023-11-19T20:37:07;12.40;1.00
3876;DHT22;1953;51.222;6.624;2023-11-19T20:41:50;12.30;1.00
3876;DHT22;1953;51.222;6.624;2023-11-19T20:46:32;12.30;1.00
3876;DHT22;1953;51.222;6.624;2023-11-19T20:51:16;12.30;1.00
3876;DHT22;1953;51.222;6.624;2023-11-19T20:55:59;12.30;1.00
3876;DHT22;1953;51.222;6.624;2023-11-19T21:00:42;12.40;1.00
3876;DHT22;1953;51.222;6.624;2023-11-19T21:05:25;12.50;1.00
3876;DHT22;1953;51.222;6.624;2023-11-19T21:10:09;12.40;1.00
3876;DHT22;1953;51.222;6.624;2023-11-19T21:14:54;12.50;1.00
3876;DHT22;1953;51.222;6.624;2023-11-19T21:19:36;12.50;1.00
3876;DHT22;1953;51.222;6.624;2023-11-19T21:24:19;12.50;1.00
3876;DHT22;1953;51.222;6.624;2023-11-19T21:29:03;12.50;1.00
3876;DHT22;1953;51.222;6.624;2023-11-19T21:33:46;12.50;1.00
3876;DHT22;1953;51.222;6.624;2023-11-19T21:38:29;12.50;1.00
3876;DHT22;1953;51.222;6.624;2023-11-19T21:43:12;12.50;1.00
3876;DHT22;1953;51.222;6.624;2023-11-19T21:47:57;12.50;1.00
3876;DHT22;1953;51.222;6.624;2023-11-19T21:52:39;12.40;1.00
3876;DHT22;1953;51.222;6.624;2023-11-19T21:57:22;12.50;1.00
3876;DHT22;1953;51.222;6.624;2023-11-19T22:02:06;12.50;1.00
3876;DHT22;1953;51.222;6.624;2023-11-19T22:06:52;12.50;1.00
3876;DHT22;1953;51.222;6.624;2023-11-19T22:11:34;12.40;1.00
3876;DHT22;1953;51.222;6.624;2023-11-19T22:16:17;12.50;1.00
3876;DHT22;1953;51.222;6.624;2023-11-19T22:20:59;12.60;1.00
3876;DHT22;1953;51.222;6.624;2023-11-19T22:25:44;12.60;1.00
3876;DHT22;1953;51.222;6.624;2023-11-19T22:30:26;12.60;1.00
3876;DHT22;1953;51.222;6.624;2023-11-19T22:35:09;12.60;1.00
3876;DHT22;1953;51.222;6.624;2023-11-19T22:39:51;12.70;1.00
3876;DHT22;1953;51.222;6.624;2023-11-19T22:44:35;12.70;1.00
3876;DHT22;1953;51.222;6.624;2023-11-19T22:49:18;12.70;1.00
3876;DHT22;1953;51.222;6.624;2023-11-19T22:54:00;12.70;1.00
3876;DHT22;1953;51.222;6.624;2023-11-19T22:58:45;12.70;1.00
3876;DHT22;1953;51.222;6.624;2023-11-19T23:03:31;12.70;1.00
3876;DHT22;1953;51.222;6.624;2023-11-19T23:08:14;12.70;1.00
3876;DHT22;1953;51.222;6.624;2023-11-19T23:12:56;12.70;1.00
3876;DHT22;1953;51.222;6.624;2023-11-19T23:17:40;12.70;1.00
3876;DHT22;1953;51.222;6.624;2023-11-19T23:22:24;12.70;1.00
3876;DHT22;1953;51.222;6.624;2023-11-19T23:27:07;12.80;1.00
3876;DHT22;1953;51.222;6.624;2023-11-19T23:31:52;12.80;1.00
3876;DHT22;1953;51.222;6.624;2023-11-19T23:36:34;12.80;1.00
3876;DHT22;1953;51.222;6.624;2023-11-19T23:41:18;12.80;1.00
3876;DHT22;1953;51.222;6.624;2023-11-19T23:46:01;12.80;1.00
3876;DHT22;1953;51.222;6.624;2023-11-19T23:50:44;12.90;1.00
3876;DHT22;1953;51.222;6.624;2023-11-19T23:55:26;12.90;1.00
